createdAt,value
2022-08-05T00:06:03.557Z,38.03
2022-08-05T00:10:37.046Z,37.77
2022-08-05T00:15:54.767Z,37.97
2022-08-05T00:20:22.231Z,38
2022-08-05T00:25:14.887Z,37.98
2022-08-05T00:30:11.232Z,37.92
2022-08-05T00:35:04.933Z,38.15
2022-08-05T00:39:57.678Z,38.25
2022-08-05T00:44:45.253Z,38
2022-08-05T00:49:44.537Z,38.22
2022-08-05T00:54:30.628Z,38.19
2022-08-05T00:59:23.230Z,38.42
2022-08-05T01:04:16.178Z,38.58
2022-08-05T01:09:08.570Z,38.53
2022-08-05T01:14:01.217Z,38.6
2022-08-05T01:18:56.265Z,38.78
2022-08-05T01:23:47.188Z,38.83
2022-08-05T01:28:39.381Z,38.92
2022-08-05T01:33:35.225Z,38.94
2022-08-05T01:38:25.001Z,39.03
2022-08-05T01:43:22.166Z,39.21
2022-08-05T01:48:10.351Z,39.17
2022-08-05T01:53:02.405Z,39.21
2022-08-05T01:58:08.535Z,39.3
2022-08-05T02:02:51.346Z,39.43
2022-08-05T02:07:40.302Z,39.41
2022-08-05T02:12:32.951Z,39.58
2022-08-05T02:17:30.023Z,39.53
2022-08-05T02:22:26.069Z,39.45
2022-08-05T02:27:10.747Z,39.61
2022-08-05T02:32:04.664Z,39.71
2022-08-05T02:36:56.227Z,39.86
2022-08-05T02:41:58.390Z,39.88
2022-08-05T02:46:44.154Z,39.87
2022-08-05T02:52:02.624Z,40.01
2022-08-05T02:56:26.704Z,40.01
2022-08-05T03:01:19.675Z,40.12
2022-08-05T03:06:53.097Z,40.37
2022-08-05T03:11:54.193Z,40.44
2022-08-05T03:15:57.144Z,40.36
2022-08-05T03:20:50.375Z,40.57
2022-08-05T03:26:04.207Z,40.51
2022-08-05T03:30:35.500Z,40.67
2022-08-05T03:35:28.173Z,40.64
2022-08-05T03:40:24.536Z,40.62
2022-08-05T03:45:22.302Z,40.78
2022-08-05T03:50:06.096Z,40.83
2022-08-05T03:55:54.563Z,41.54
2022-08-05T03:59:54.624Z,41.9
2022-08-05T04:04:44.869Z,42.01
2022-08-05T04:09:36.758Z,42.83
2022-08-05T04:14:29.605Z,43.74
2022-08-05T04:19:21.242Z,43.55
2022-08-05T04:24:18.964Z,43.84
2022-08-05T04:29:08.365Z,44.89
2022-08-05T04:34:17.818Z,45.05
2022-08-05T04:38:53.773Z,45.02
2022-08-05T04:43:46.706Z,44.9
2022-08-05T04:48:38.850Z,45.74
2022-08-05T04:53:33.448Z,45.8
2022-08-05T04:58:24.064Z,46.18
2022-08-05T05:03:16.875Z,46.27
2022-08-05T05:08:14.239Z,47.53
2022-08-05T05:13:01.777Z,47.51
2022-08-05T05:17:56.031Z,46.75
2022-08-05T05:22:47.187Z,47.3
2022-08-05T05:27:41.968Z,48.6
2022-08-05T05:32:32.147Z,47.72
2022-08-05T05:37:29.227Z,48.45
2022-08-05T05:42:16.967Z,49
2022-08-05T05:52:06.110Z,46.53
2022-08-05T06:01:57.465Z,46.49
2022-08-05T06:11:32.848Z,47.85
2022-08-05T06:16:27.738Z,47.33
2022-08-05T06:21:18.708Z,46.97
2022-08-05T06:26:13.191Z,47.66
2022-08-05T06:31:10.992Z,47.7
2022-08-05T06:36:03.338Z,47.26
2022-08-05T06:40:48.352Z,49.16
2022-08-05T06:45:44.168Z,49.53
2022-08-05T06:50:33.709Z,48.17
2022-08-05T06:55:27.235Z,48.23
2022-08-05T07:00:22.362Z,48.26
2022-08-05T07:05:11.611Z,47.63
2022-08-05T07:10:06.577Z,47.63
2022-08-05T07:14:58.727Z,47.48
2022-08-05T07:20:31.167Z,47.53
2022-08-05T07:24:52.406Z,48.93
2022-08-05T07:30:21.974Z,45.38
2022-08-05T07:34:28.530Z,45.04
2022-08-05T07:39:24.553Z,44.66
2022-08-05T07:44:14.634Z,44.55
2022-08-05T07:49:06.090Z,44.29
2022-08-05T07:53:57.474Z,44.22
2022-08-05T07:58:55.187Z,43.98
2022-08-05T08:03:43.990Z,43.84
2022-08-05T08:08:35.987Z,43.76
2022-08-05T08:13:28.914Z,43.65
2022-08-05T08:18:21.526Z,43.58
2022-08-05T08:24:00.734Z,43.76
2022-08-05T08:28:06.415Z,43.46
2022-08-05T08:33:01.020Z,43.54
2022-08-05T08:37:51.811Z,43.37
2022-08-05T08:42:47.001Z,43.33
2022-08-05T08:47:47.869Z,43.25
2022-08-05T08:52:29.375Z,43.36
2022-08-05T08:57:21.462Z,43.27
2022-08-05T09:02:14.139Z,43.15
2022-08-05T09:07:10.744Z,43.15
2022-08-05T09:12:03.304Z,43.08
2022-08-05T09:16:52.058Z,43.37
2022-08-05T09:22:18.123Z,43.54
2022-08-05T09:26:37.610Z,43.69
2022-08-05T09:32:38.618Z,43.51
2022-08-05T09:36:27.543Z,47.26
2022-08-05T09:41:16.160Z,45.55
2022-08-05T09:46:08.643Z,43.44
2022-08-05T09:51:00.479Z,43.35
2022-08-05T09:55:55.968Z,43.28
2022-08-05T10:00:45.880Z,43.07
2022-08-05T10:05:38.557Z,43.04
2022-08-05T10:10:32.362Z,43.07
2022-08-05T10:15:23.545Z,42.93
2022-08-05T10:20:16.092Z,43.12
2022-08-05T10:25:08.678Z,43.02
2022-08-05T10:30:06.264Z,42.87
2022-08-05T10:34:54.268Z,42.69
2022-08-05T10:39:58.734Z,42.37
2022-08-05T10:44:39.477Z,42.2
2022-08-05T10:49:33.140Z,41.08
2022-08-05T10:54:28.895Z,41.21
2022-08-05T11:00:01.489Z,41.05
2022-08-05T11:04:09.907Z,41
2022-08-05T11:09:02.520Z,40.84
2022-08-05T11:13:58.182Z,40.76
2022-08-05T11:18:47.696Z,40.81
2022-08-05T11:24:02.410Z,40.64
2022-08-05T11:28:32.836Z,40.07
2022-08-05T11:33:25.510Z,39.54
2022-08-05T11:38:26.891Z,39.75
2022-08-05T11:43:10.642Z,39.65
2022-08-05T11:48:03.632Z,38.94
2022-08-05T11:52:58.064Z,38.69
2022-08-05T11:58:08.857Z,38.86
2022-08-05T12:02:41.889Z,38.46
2022-08-05T12:08:02.930Z,38.3
2022-08-05T12:12:27.652Z,38.45
2022-08-05T12:18:00.620Z,38.46
2022-08-05T12:22:12.744Z,37.46
2022-08-05T12:27:09.581Z,37.16
2022-08-05T12:36:50.437Z,36.27
2022-08-05T12:41:43.502Z,36.06
2022-08-05T12:46:36.059Z,35.79
2022-08-05T12:56:24.542Z,35.95
2022-08-05T13:06:06.679Z,35.21
2022-08-05T13:15:52.016Z,35.49
2022-08-05T13:20:44.595Z,35.28
2022-08-05T13:25:52.919Z,35.28
2022-08-05T13:30:32.475Z,35.92
2022-08-05T13:35:31.578Z,36.46
2022-08-05T13:40:35.827Z,36.86
2022-08-05T13:45:08.540Z,37.26
2022-08-05T13:50:01.392Z,37.46
2022-08-05T13:54:54.093Z,37.45
2022-08-05T13:59:55.526Z,37.46
2022-08-05T14:04:39.456Z,37.4
2022-08-05T14:09:32.077Z,37.28
2022-08-05T14:14:25.520Z,36.92
2022-08-05T14:19:17.769Z,36.86
2022-08-05T14:24:10.530Z,36.61
2022-08-05T14:29:00.090Z,36.77
2022-08-05T14:33:56.863Z,37.23
2022-08-05T14:38:46.352Z,37.5
2022-08-05T14:43:57.371Z,37.72
2022-08-05T14:48:32.848Z,37.48
2022-08-05T14:53:24.248Z,37.61
2022-08-05T14:58:16.517Z,37.49
2022-08-05T15:03:09.548Z,37.27
2022-08-05T15:08:06.777Z,37.27
2022-08-05T15:13:00.783Z,36.67
2022-08-05T15:17:51.241Z,36.85
2022-08-05T15:22:39.894Z,36.59
2022-08-05T15:27:35.962Z,36.67
2022-08-05T15:32:27.322Z,37
2022-08-05T15:37:20.703Z,37.86
2022-08-05T15:42:28.609Z,38.89
2022-08-05T15:47:03.281Z,39.41
2022-08-05T15:52:03.556Z,40.06
2022-08-05T15:56:48.425Z,40.21
2022-08-05T16:01:52.179Z,40.74
2022-08-05T16:06:33.432Z,41.15
2022-08-05T16:11:39.750Z,41.49
2022-08-05T16:16:21.382Z,41.69
2022-08-05T16:21:10.901Z,43.08
2022-08-05T16:26:03.153Z,43.62
2022-08-05T16:30:55.713Z,43.94
2022-08-05T16:35:51.162Z,44.38
2022-08-05T16:40:40.374Z,44.67
2022-08-05T16:46:05.605Z,44.83
2022-08-05T16:50:25.195Z,44.62
2022-08-05T16:55:17.759Z,44.65
2022-08-05T17:00:10.581Z,44.46
2022-08-05T17:05:03.327Z,44.83
2022-08-05T17:09:57.293Z,44.86
2022-08-05T17:14:48.583Z,44.87
2022-08-05T17:19:41.216Z,44.68
2022-08-05T17:24:36.614Z,44.65
2022-08-05T17:29:32.904Z,44.69
2022-08-05T17:34:18.849Z,44.14
2022-08-05T17:39:23.608Z,43.73
2022-08-05T17:44:04.059Z,43.62
2022-08-05T17:48:56.543Z,43.7
2022-08-05T17:53:50.659Z,43.61
2022-08-05T17:58:41.043Z,43.61
2022-08-05T18:03:56.691Z,43.5
2022-08-05T18:08:25.769Z,44.02
2022-08-05T18:13:18.475Z,43.91
2022-08-05T18:23:08.937Z,43.81
2022-08-05T18:32:53.273Z,41.63
2022-08-05T18:42:33.482Z,41.35
2022-08-05T18:47:22.668Z,40.83
2022-08-05T18:52:18.251Z,40.77
2022-08-05T18:57:10.049Z,40.74
2022-08-05T19:02:02.755Z,40.74
2022-08-05T19:06:55.370Z,40.8
2022-08-05T19:11:59.687Z,40.76
2022-08-05T19:16:46.642Z,40.61
2022-08-05T19:21:34.535Z,40.55
2022-08-05T19:26:26.636Z,40.49
2022-08-05T19:31:19.636Z,40.74
2022-08-05T19:36:11.882Z,40.64
2022-08-05T19:41:06.925Z,40.77
2022-08-05T19:45:57.114Z,40.79
2022-08-05T19:50:49.743Z,40.63
2022-08-05T19:56:11.998Z,40.7
2022-08-05T20:00:35.004Z,41.04
2022-08-05T20:05:27.436Z,41.23
2022-08-05T20:10:22.249Z,41.52
2022-08-05T20:15:12.033Z,41.29
2022-08-05T20:20:08.974Z,41.55
2022-08-05T20:24:56.997Z,42.6
2022-08-05T20:29:52.385Z,42.26
2022-08-05T20:34:42.174Z,41.7
2022-08-05T20:39:35.700Z,41.35
2022-08-05T20:44:29.324Z,41.46
2022-08-05T20:49:24.300Z,42.03
2022-08-05T20:54:13.835Z,41.85
2022-08-05T20:59:14.396Z,42.06
2022-08-05T21:03:58.030Z,42.43
2022-08-05T21:08:50.487Z,42.32
2022-08-05T21:13:48.635Z,42.17
2022-08-05T21:18:35.843Z,42.19
2022-08-05T21:23:27.907Z,42.46
2022-08-05T21:28:23.560Z,42.33
2022-08-05T21:33:21.888Z,42.47
2022-08-05T21:38:05.837Z,42.66
2022-08-05T21:42:58.980Z,42.5
2022-08-05T21:47:55.290Z,42.44
2022-08-05T21:52:47.284Z,42.35
2022-08-05T21:57:36.548Z,42.28
2022-08-05T22:02:29.102Z,42.58
2022-08-05T22:07:23.155Z,42.29
2022-08-05T22:12:14.494Z,42.08
2022-08-05T22:17:07.490Z,42.01
2022-08-05T22:21:59.603Z,41.88
2022-08-05T22:26:52.037Z,42.17
2022-08-05T22:31:45.273Z,41.96
2022-08-05T22:36:37.541Z,41.88
2022-08-05T22:42:05.300Z,42.16
2022-08-05T22:46:25.763Z,41.9
2022-08-05T22:51:23.015Z,41.78
2022-08-05T22:56:09.788Z,41.53
2022-08-05T23:01:00.803Z,41.52
2022-08-05T23:05:53.265Z,41.48
2022-08-05T23:10:45.611Z,41.49
2022-08-05T23:15:38.167Z,41.87
2022-08-05T23:20:30.846Z,41.71
2022-08-05T23:25:50.587Z,41.5
2022-08-05T23:30:16.041Z,41.5
2022-08-05T23:35:08.679Z,41.42
2022-08-05T23:40:01.029Z,41.65
2022-08-05T23:44:54.386Z,41.53
2022-08-05T23:49:46.073Z,41.29
2022-08-05T23:54:38.818Z,40.89
2022-08-05T23:59:37.513Z,40.68
